Time;durP1;ratioP1;P1;durP2;ratioP2;P2;SDS_P1;SDS_P2;PMS_P1;PMS_P2;Temp;Humidity;BMP_temperature;BMP_pressure;BME280_temperature;BME280_humidity;BME280_pressure;Samples;Min_cycle;Max_cycle;Signal;HPM_P1;HPM_P2
2021/06/30 00:01:46;;;;;;;1.65;0.60;;;16.70;99.90;;;;;;5111841;27;20428;-76
2021/06/30 00:04:24;;;;;;;1.45;0.60;;;16.60;99.90;;;;;;5072722;28;20386;-76
2021/06/30 00:07:00;;;;;;;1.73;0.57;;;16.60;99.90;;;;;;5065554;28;20138;-75
2021/06/30 00:09:39;;;;;;;2.30;0.93;;;16.50;99.90;;;;;;5063312;28;20469;-89
2021/06/30 00:12:18;;;;;;;1.02;0.55;;;16.50;99.90;;;;;;5116058;27;20794;-89
2021/06/30 00:14:58;;;;;;;0.75;0.50;;;16.40;99.90;;;;;;5120125;27;20338;-87
2021/06/30 00:17:38;;;;;;;0.90;0.50;;;16.40;99.90;;;;;;5107066;27;20306;-89
2021/06/30 00:20:16;;;;;;;0.90;0.50;;;16.40;99.90;;;;;;5123470;27;20132;-88
2021/06/30 00:22:56;;;;;;;0.82;0.50;;;16.30;99.90;;;;;;5112324;27;20337;-90
2021/06/30 00:25:39;;;;;;;0.80;0.50;;;16.40;99.90;;;;;;5110442;27;20667;-89
2021/06/30 00:28:17;;;;;;;0.88;0.40;;;16.40;99.90;;;;;;5134074;27;20131;-89
2021/06/30 00:30:58;;;;;;;0.93;0.45;;;16.30;99.90;;;;;;5155410;27;20208;-92
2021/06/30 00:33:37;;;;;;;1.55;0.80;;;16.30;99.90;;;;;;5099092;27;20331;-81
2021/06/30 00:36:15;;;;;;;1.77;0.50;;;16.20;99.90;;;;;;5131006;27;20160;-79
2021/06/30 00:38:54;;;;;;;1.58;0.50;;;16.20;99.90;;;;;;5119555;27;20142;-78
2021/06/30 00:41:32;;;;;;;1.27;0.60;;;16.10;99.90;;;;;;5068289;28;20122;-79
2021/06/30 00:44:11;;;;;;;0.82;0.47;;;16.10;99.90;;;;;;5142842;27;20568;-80
2021/06/30 00:46:49;;;;;;;1.45;0.70;;;16.10;99.90;;;;;;5146390;27;20386;-79
2021/06/30 00:49:26;;;;;;;0.95;0.40;;;16.10;99.90;;;;;;5121747;27;20163;-80
2021/06/30 00:52:04;;;;;;;0.98;0.47;;;16.10;99.90;;;;;;5124439;27;20314;-79
2021/06/30 00:54:41;;;;;;;1.02;0.50;;;16.10;99.90;;;;;;5103845;27;20311;-79
2021/06/30 00:57:21;;;;;;;0.75;0.50;;;16.00;99.90;;;;;;5084840;28;20470;-79
2021/06/30 00:59:58;;;;;;;1.20;0.60;;;16.10;99.90;;;;;;5116721;27;1272662;-78
2021/06/30 01:02:35;;;;;;;0.80;0.50;;;16.00;99.90;;;;;;5102249;27;20384;-80
2021/06/30 01:05:12;;;;;;;1.15;0.50;;;16.00;99.90;;;;;;5083070;27;20157;-78
2021/06/30 01:07:49;;;;;;;1.10;0.60;;;16.10;99.90;;;;;;5107385;27;1296151;-78
2021/06/30 01:10:27;;;;;;;2.22;0.85;;;16.10;99.90;;;;;;5096272;28;20391;-78
2021/06/30 01:13:05;;;;;;;1.80;1.10;;;16.10;99.90;;;;;;5103024;27;20186;-78
2021/06/30 01:15:58;;;;;;;1.00;0.50;;;16.20;99.90;;;;;;5102584;27;20450;-79
2021/06/30 01:18:37;;;;;;;1.85;0.50;;;16.20;99.90;;;;;;5086587;28;20413;-80
2021/06/30 01:21:15;;;;;;;0.80;0.50;;;16.20;99.90;;;;;;5082305;27;20506;-78
2021/06/30 01:23:52;;;;;;;1.30;0.50;;;16.20;99.90;;;;;;5115038;27;20396;-79
2021/06/30 01:26:29;;;;;;;1.17;0.50;;;16.30;99.90;;;;;;5065836;28;20142;-78
2021/06/30 01:29:04;;;;;;;1.00;0.60;;;16.30;99.90;;;;;;5103466;27;1279129;-78
2021/06/30 01:31:41;;;;;;;1.02;0.52;;;16.40;99.90;;;;;;5120619;27;1279366;-82
2021/06/30 01:34:17;;;;;;;1.70;0.93;;;16.30;99.90;;;;;;5119201;27;1296945;-79
2021/06/30 01:36:56;;;;;;;0.80;0.50;;;16.30;99.90;;;;;;5061568;28;20477;-79
2021/06/30 01:39:33;;;;;;;1.08;0.55;;;16.30;99.90;;;;;;5119434;27;20456;-81
2021/06/30 01:42:22;;;;;;;1.48;0.70;;;16.30;99.90;;;;;;5061942;28;20930;-82
2021/06/30 01:45:00;;;;;;;1.45;0.70;;;16.30;99.90;;;;;;5102468;27;20455;-87
2021/06/30 01:47:38;;;;;;;0.80;0.57;;;16.30;99.90;;;;;;5043578;28;20468;-79
2021/06/30 01:50:16;;;;;;;1.00;0.60;;;16.30;99.90;;;;;;5060838;28;20410;-80
2021/06/30 01:52:54;;;;;;;0.95;0.50;;;16.20;99.90;;;;;;5106225;27;20460;-79
2021/06/30 01:55:43;;;;;;;1.48;0.52;;;16.30;99.90;;;;;;5062820;28;20387;-92
2021/06/30 01:58:37;;;;;;;1.13;0.70;;;16.20;99.90;;;;;;5116314;27;20494;-89
2021/06/30 02:01:18;;;;;;;1.23;0.65;;;16.30;99.90;;;;;;5100679;28;21281;-92
2021/06/30 02:03:59;;;;;;;2.55;0.60;;;16.20;99.90;;;;;;5091116;27;20386;-90
2021/06/30 02:06:45;;;;;;;0.80;0.50;;;16.20;99.90;;;;;;5119262;27;20302;-90
2021/06/30 02:09:25;;;;;;;1.33;0.68;;;16.20;99.90;;;;;;5081164;27;1278016;-88
2021/06/30 02:12:04;;;;;;;0.60;0.50;;;16.20;99.90;;;;;;5104862;27;20675;-89
2021/06/30 02:14:42;;;;;;;2.63;0.60;;;16.10;99.90;;;;;;5157747;27;19919;-89
2021/06/30 02:17:21;;;;;;;0.70;0.50;;;16.10;99.90;;;;;;5116751;27;20398;-89
2021/06/30 02:19:57;;;;;;;1.35;0.60;;;16.10;99.90;;;;;;5040043;27;2383569;-88
2021/06/30 02:22:33;;;;;;;1.42;0.50;;;16.10;99.90;;;;;;5040997;27;1690114;-91
2021/06/30 02:25:18;;;;;;;1.60;0.45;;;16.10;99.90;;;;;;5123568;27;20707;-88
2021/06/30 02:27:58;;;;;;;1.20;0.60;;;16.10;99.90;;;;;;5113720;27;20383;-78
2021/06/30 02:30:36;;;;;;;0.60;0.50;;;16.10;99.90;;;;;;5044005;28;20466;-79
2021/06/30 02:33:12;;;;;;;1.63;0.50;;;16.10;99.90;;;;;;5106228;27;1265160;-79
2021/06/30 02:35:51;;;;;;;0.77;0.45;;;16.10;99.90;;;;;;5077463;28;20406;-79
2021/06/30 02:38:28;;;;;;;0.80;0.50;;;16.10;99.90;;;;;;5060733;28;20431;-79
2021/06/30 02:41:04;;;;;;;0.80;0.50;;;16.10;99.90;;;;;;5119675;27;1291128;-79
2021/06/30 02:43:42;;;;;;;0.73;0.50;;;16.10;99.90;;;;;;5136491;27;20472;-79
2021/06/30 02:46:20;;;;;;;0.63;0.40;;;16.00;99.90;;;;;;5082316;27;20538;-79
2021/06/30 02:48:56;;;;;;;0.50;0.40;;;16.00;99.90;;;;;;5060997;28;20166;-86
2021/06/30 02:51:34;;;;;;;0.95;0.50;;;15.90;99.90;;;;;;5049362;27;1723814;-86
2021/06/30 02:54:13;;;;;;;1.25;0.50;;;15.90;99.90;;;;;;5106646;27;20991;-86
2021/06/30 02:56:53;;;;;;;2.65;0.50;;;15.80;99.90;;;;;;5054283;27;1652951;-88
2021/06/30 02:59:33;;;;;;;0.60;0.40;;;15.80;99.90;;;;;;5156731;27;20151;-86
2021/06/30 03:02:10;;;;;;;0.98;0.60;;;15.70;99.90;;;;;;5085916;27;1323716;-87
2021/06/30 03:04:49;;;;;;;0.90;0.40;;;15.70;99.90;;;;;;5100879;27;20400;-89
2021/06/30 03:07:24;;;;;;;0.85;0.40;;;15.70;99.90;;;;;;5043760;27;2417115;-86
2021/06/30 03:10:06;;;;;;;0.68;0.40;;;15.70;99.90;;;;;;5081529;28;20106;-79
2021/06/30 03:12:43;;;;;;;0.50;0.40;;;15.60;99.90;;;;;;5083064;27;20433;-78
2021/06/30 03:15:20;;;;;;;0.82;0.50;;;15.60;99.90;;;;;;5082233;27;21080;-78
2021/06/30 03:17:55;;;;;;;0.88;0.50;;;15.60;99.90;;;;;;5086539;27;1285444;-77
2021/06/30 03:20:32;;;;;;;0.50;0.40;;;15.60;99.90;;;;;;5094826;27;1285997;-79
2021/06/30 03:23:11;;;;;;;1.08;0.47;;;15.60;99.90;;;;;;5103660;27;20420;-78
2021/06/30 03:25:48;;;;;;;0.70;0.40;;;15.60;99.90;;;;;;5083535;27;20450;-82
2021/06/30 03:28:25;;;;;;;0.70;0.50;;;15.60;99.90;;;;;;5061640;28;20215;-78
2021/06/30 03:31:01;;;;;;;0.55;0.40;;;15.60;99.90;;;;;;5081477;27;1714471;-88
2021/06/30 03:33:38;;;;;;;0.90;0.50;;;15.50;99.90;;;;;;5048126;27;1727484;-86
2021/06/30 03:36:17;;;;;;;1.00;0.70;;;15.50;99.90;;;;;;5090855;27;20399;-86
2021/06/30 03:38:56;;;;;;;0.77;0.47;;;15.50;99.90;;;;;;5110828;27;20390;-88
2021/06/30 03:41:32;;;;;;;1.08;0.60;;;15.50;99.90;;;;;;5023645;27;2384280;-87
2021/06/30 03:44:08;;;;;;;1.45;0.60;;;15.40;99.90;;;;;;5069523;27;1754269;-88
2021/06/30 03:46:47;;;;;;;0.73;0.50;;;15.40;99.90;;;;;;5111648;27;20416;-88
2021/06/30 03:49:28;;;;;;;1.27;0.60;;;15.40;99.90;;;;;;5120758;27;20951;-88
2021/06/30 03:52:08;;;;;;;1.08;0.40;;;15.40;99.90;;;;;;5110326;27;20335;-87
2021/06/30 03:54:44;;;;;;;0.80;0.50;;;15.40;99.90;;;;;;5034540;27;2368919;-86
2021/06/30 03:57:25;;;;;;;0.95;0.50;;;15.40;99.90;;;;;;5118893;27;20391;-89
2021/06/30 04:00:05;;;;;;;1.00;0.70;;;15.40;99.90;;;;;;5075623;27;1311516;-87
2021/06/30 04:02:51;;;;;;;1.40;0.80;;;15.40;99.90;;;;;;5131722;27;20899;-89
2021/06/30 04:05:31;;;;;;;1.95;0.90;;;15.40;99.90;;;;;;5102665;27;20393;-87
2021/06/30 04:08:09;;;;;;;1.83;0.85;;;15.40;99.90;;;;;;5124090;27;20141;-89
2021/06/30 04:10:49;;;;;;;1.30;0.88;;;15.40;99.90;;;;;;5138329;27;20929;-89
2021/06/30 04:13:26;;;;;;;2.05;1.00;;;15.40;99.90;;;;;;5044059;27;1674129;-86
2021/06/30 04:16:07;;;;;;;1.27;0.77;;;15.40;99.90;;;;;;5146986;27;20305;-86
2021/06/30 04:18:46;;;;;;;2.85;1.00;;;15.40;99.90;;;;;;5115576;27;20892;-88
2021/06/30 04:21:25;;;;;;;1.80;0.77;;;15.40;99.90;;;;;;5138274;27;20534;-88
2021/06/30 04:24:03;;;;;;;1.48;0.90;;;15.40;99.90;;;;;;5140411;27;20128;-88
2021/06/30 04:26:42;;;;;;;1.58;0.80;;;15.40;99.90;;;;;;5036842;27;2011866;-89
2021/06/30 04:29:18;;;;;;;1.45;1.00;;;15.40;99.90;;;;;;5028037;27;1681420;-90
2021/06/30 04:31:58;;;;;;;2.38;1.10;;;15.50;99.90;;;;;;5134198;27;20312;-87
2021/06/30 04:34:33;;;;;;;1.67;0.93;;;15.50;99.90;;;;;;5015523;27;2356932;-85
2021/06/30 04:37:13;;;;;;;1.67;0.80;;;15.50;99.90;;;;;;5108177;27;20116;-86
2021/06/30 04:39:52;;;;;;;1.85;1.10;;;15.50;99.90;;;;;;5119112;27;20302;-86
2021/06/30 04:42:32;;;;;;;1.70;1.17;;;15.50;99.90;;;;;;5107614;27;20399;-86
2021/06/30 04:45:09;;;;;;;2.42;1.23;;;15.60;99.90;;;;;;5111836;27;1490106;-86
2021/06/30 04:47:46;;;;;;;1.42;1.05;;;15.60;99.90;;;;;;5067716;27;1679485;-87
2021/06/30 04:50:25;;;;;;;2.80;1.10;;;15.60;99.90;;;;;;5107631;27;20326;-87
2021/06/30 04:53:03;;;;;;;2.75;1.77;;;15.50;99.90;;;;;;5144579;27;20113;-87
2021/06/30 04:55:43;;;;;;;2.35;1.90;;;15.50;99.90;;;;;;5116005;27;20393;-86
2021/06/30 04:58:25;;;;;;;3.47;1.23;;;15.50;99.90;;;;;;5100857;27;20397;-85
2021/06/30 05:01:04;;;;;;;4.22;1.65;;;15.50;99.90;;;;;;5119314;27;20306;-86
2021/06/30 05:03:40;;;;;;;2.17;1.70;;;15.50;99.90;;;;;;5037342;27;2405027;-86
2021/06/30 05:06:19;;;;;;;2.70;1.58;;;15.50;99.90;;;;;;5099772;27;20409;-89
2021/06/30 05:08:55;;;;;;;2.15;1.38;;;15.50;99.90;;;;;;5009051;27;2196686;-88
2021/06/30 05:11:33;;;;;;;2.20;1.48;;;15.60;99.90;;;;;;5097386;27;20374;-87
2021/06/30 05:14:10;;;;;;;2.80;1.50;;;15.60;99.90;;;;;;5118715;27;1297889;-81
2021/06/30 05:16:46;;;;;;;2.40;1.80;;;15.60;99.90;;;;;;5071925;27;2042110;-79
2021/06/30 05:19:22;;;;;;;2.00;1.30;;;15.60;99.90;;;;;;5094395;27;1283892;-80
2021/06/30 05:22:02;;;;;;;1.98;1.40;;;15.60;99.90;;;;;;5063009;28;20963;-82
2021/06/30 05:24:39;;;;;;;4.38;1.52;;;15.60;99.90;;;;;;5113469;27;20109;-79
2021/06/30 05:27:17;;;;;;;2.53;1.33;;;15.50;99.90;;;;;;5118439;27;20107;-80
2021/06/30 05:29:55;;;;;;;2.40;1.88;;;15.50;99.90;;;;;;5125451;27;20115;-77
2021/06/30 05:32:33;;;;;;;3.80;2.35;;;15.50;99.90;;;;;;5109703;27;20549;-77
2021/06/30 05:35:12;;;;;;;5.97;2.83;;;15.50;99.90;;;;;;5107558;27;20101;-78
2021/06/30 05:37:51;;;;;;;6.18;4.78;;;15.40;99.90;;;;;;5104544;27;20169;-78
2021/06/30 05:40:28;;;;;;;3.63;2.63;;;15.30;99.90;;;;;;5104622;27;20105;-80
2021/06/30 05:43:06;;;;;;;4.22;2.85;;;15.20;99.90;;;;;;5087291;27;20517;-80
2021/06/30 05:45:47;;;;;;;5.32;4.55;;;15.20;99.90;;;;;;5111332;27;20482;-80
2021/06/30 05:48:24;;;;;;;3.70;2.60;;;15.20;99.90;;;;;;5066947;28;20386;-78
2021/06/30 05:51:06;;;;;;;2.40;1.75;;;15.20;99.90;;;;;;5141710;27;20430;-78
2021/06/30 05:53:44;;;;;;;2.47;1.60;;;15.20;99.90;;;;;;5061418;28;20966;-77
2021/06/30 05:56:21;;;;;;;1.80;1.30;;;15.20;99.90;;;;;;5061451;28;20913;-81
2021/06/30 05:59:10;;;;;;;2.42;1.90;;;15.20;99.90;;;;;;5079945;27;20581;-79
2021/06/30 06:01:46;;;;;;;2.25;1.45;;;15.20;99.90;;;;;;5126486;27;20535;-81
2021/06/30 06:04:23;;;;;;;3.15;1.58;;;15.20;99.90;;;;;;5092814;27;20309;-80
2021/06/30 06:07:00;;;;;;;1.95;1.75;;;15.20;99.90;;;;;;5062577;28;20177;-77
2021/06/30 06:09:36;;;;;;;2.28;1.45;;;15.30;99.90;;;;;;5061795;28;20131;-77
2021/06/30 06:12:12;;;;;;;2.55;2.35;;;15.30;99.90;;;;;;5095236;27;1297838;-78
2021/06/30 06:14:50;;;;;;;2.85;1.50;;;15.30;99.90;;;;;;5060704;28;20422;-78
2021/06/30 06:17:25;;;;;;;3.35;1.55;;;15.30;99.90;;;;;;5120223;27;1281391;-79
2021/06/30 06:20:00;;;;;;;1.75;1.42;;;15.20;99.90;;;;;;5087765;27;1288501;-80
2021/06/30 06:22:38;;;;;;;2.63;1.65;;;15.30;99.90;;;;;;5117894;27;20509;-76
2021/06/30 06:25:16;;;;;;;2.55;1.58;;;15.30;99.90;;;;;;5100672;27;20405;-81
2021/06/30 06:27:53;;;;;;;4.45;2.17;;;15.40;99.90;;;;;;5103945;27;20534;-81
2021/06/30 06:30:30;;;;;;;2.15;1.63;;;15.40;99.90;;;;;;5108583;27;20292;-78
2021/06/30 06:33:07;;;;;;;3.13;1.63;;;15.40;99.90;;;;;;5103215;27;20408;-79
2021/06/30 06:36:11;;;;;;;2.42;1.55;;;15.40;99.90;;;;;;5066963;28;20421;-80
2021/06/30 06:38:48;;;;;;;3.08;2.33;;;15.50;99.90;;;;;;5061907;28;20950;-83
2021/06/30 06:41:24;;;;;;;7.88;6.57;;;15.40;99.90;;;;;;5091663;27;1601655;-79
2021/06/30 06:44:02;;;;;;;7.95;6.82;;;15.50;99.90;;;;;;5060256;28;20386;-80
2021/06/30 06:46:41;;;;;;;4.38;3.95;;;15.50;99.90;;;;;;5147320;27;20116;-76
2021/06/30 06:49:17;;;;;;;2.85;2.45;;;15.50;99.90;;;;;;5070132;27;1962439;-72
2021/06/30 06:51:55;;;;;;;3.08;2.35;;;15.40;99.90;;;;;;5080435;27;20975;-72
2021/06/30 06:54:31;;;;;;;4.05;3.55;;;15.50;99.90;;;;;;5059547;28;20142;-75
2021/06/30 06:57:08;;;;;;;5.22;4.57;;;15.50;99.90;;;;;;5135981;27;20197;-74
2021/06/30 06:59:43;;;;;;;4.15;3.75;;;15.50;99.90;;;;;;5100816;27;1288256;-75
2021/06/30 07:02:21;;;;;;;2.83;2.58;;;15.50;99.90;;;;;;5059804;28;20874;-74
2021/06/30 07:04:58;;;;;;;3.50;2.67;;;15.60;99.90;;;;;;5104123;27;20167;-75
2021/06/30 07:07:42;;;;;;;2.28;2.08;;;15.60;99.90;;;;;;5059307;28;20687;-74
2021/06/30 07:10:18;;;;;;;2.30;1.90;;;15.70;99.90;;;;;;5117985;27;1269834;-73
2021/06/30 07:12:56;;;;;;;3.03;2.72;;;15.70;99.90;;;;;;5061674;28;20524;-75
2021/06/30 07:15:39;;;;;;;2.38;2.17;;;15.70;99.90;;;;;;5075363;27;20467;-73
2021/06/30 07:18:21;;;;;;;3.08;2.38;;;15.80;99.90;;;;;;5143701;27;20120;-74
2021/06/30 07:21:03;;;;;;;3.03;2.30;;;15.90;99.90;;;;;;5151275;27;20113;-75
2021/06/30 07:23:42;;;;;;;2.75;2.55;;;15.90;99.90;;;;;;5053468;28;20447;-74
2021/06/30 07:26:21;;;;;;;2.45;1.58;;;15.90;99.90;;;;;;5149422;27;20308;-73
2021/06/30 07:29:00;;;;;;;2.55;1.98;;;15.90;99.90;;;;;;5059676;28;20983;-73
2021/06/30 07:31:39;;;;;;;3.28;2.42;;;15.90;99.90;;;;;;5143093;27;20320;-73
2021/06/30 07:34:19;;;;;;;3.13;2.70;;;15.90;99.90;;;;;;5153946;27;20257;-75
2021/06/30 07:36:58;;;;;;;2.60;2.20;;;15.90;99.90;;;;;;5100844;27;20408;-75
2021/06/30 07:39:38;;;;;;;3.75;2.78;;;16.00;99.90;;;;;;5095411;27;20400;-75
2021/06/30 07:42:18;;;;;;;4.88;3.35;;;16.00;99.90;;;;;;5148619;27;20332;-73
2021/06/30 07:44:59;;;;;;;2.78;2.20;;;16.10;99.90;;;;;;5118394;27;20418;-73
2021/06/30 07:47:37;;;;;;;3.47;3.08;;;16.20;99.90;;;;;;5102280;27;20306;-75
2021/06/30 07:50:16;;;;;;;3.53;3.22;;;16.30;99.90;;;;;;5116341;27;20526;-73
2021/06/30 07:52:54;;;;;;;3.53;3.22;;;16.30;99.90;;;;;;5061164;28;20426;-75
2021/06/30 07:55:31;;;;;;;3.22;2.80;;;16.40;99.90;;;;;;5077115;27;1581129;-73
2021/06/30 07:58:10;;;;;;;3.35;2.38;;;16.50;99.90;;;;;;5068882;28;20484;-73
2021/06/30 08:00:48;;;;;;;2.47;2.28;;;16.60;99.90;;;;;;5103554;27;20963;-74
2021/06/30 08:03:26;;;;;;;3.58;2.80;;;16.60;99.90;;;;;;5151375;27;20719;-74
2021/06/30 08:06:04;;;;;;;2.35;2.15;;;16.70;99.90;;;;;;5112430;27;20708;-73
2021/06/30 08:08:40;;;;;;;5.70;3.45;;;16.80;99.90;;;;;;5097578;27;1273283;-73
2021/06/30 08:11:17;;;;;;;3.00;2.65;;;16.80;99.90;;;;;;5063868;28;20385;-73
2021/06/30 08:13:54;;;;;;;3.50;2.58;;;16.90;99.90;;;;;;5115944;27;1273357;-73
2021/06/30 08:16:31;;;;;;;3.75;2.80;;;16.90;99.90;;;;;;5069648;28;20484;-74
2021/06/30 08:19:08;;;;;;;2.78;2.35;;;16.80;99.90;;;;;;5080253;27;20211;-74
2021/06/30 08:21:43;;;;;;;3.90;3.60;;;16.90;99.90;;;;;;5118511;27;1278856;-74
2021/06/30 08:24:22;;;;;;;3.95;3.60;;;16.90;99.90;;;;;;5100926;27;20501;-76
2021/06/30 08:26:59;;;;;;;2.97;2.67;;;16.90;99.90;;;;;;5062750;28;20439;-74
2021/06/30 08:29:37;;;;;;;3.15;2.80;;;17.10;99.90;;;;;;5103704;27;20769;-74
2021/06/30 08:32:16;;;;;;;2.30;1.95;;;17.10;99.90;;;;;;5071196;28;20401;-73
2021/06/30 08:34:53;;;;;;;2.75;1.98;;;17.10;99.90;;;;;;5079958;27;20748;-73
2021/06/30 08:37:33;;;;;;;2.83;2.22;;;17.10;99.90;;;;;;5087931;27;1271122;-75
2021/06/30 08:40:13;;;;;;;2.83;2.50;;;17.10;99.90;;;;;;5080186;27;20981;-72
2021/06/30 08:42:49;;;;;;;3.58;3.15;;;17.10;99.90;;;;;;5115216;27;1281591;-71
2021/06/30 08:45:27;;;;;;;3.75;3.17;;;17.20;99.90;;;;;;5050784;28;20395;-72
2021/06/30 08:48:05;;;;;;;3.67;2.50;;;17.20;99.90;;;;;;5053011;28;20166;-71
2021/06/30 08:50:46;;;;;;;3.00;2.03;;;17.20;99.90;;;;;;5060059;28;20426;-75
2021/06/30 08:53:24;;;;;;;2.70;2.03;;;17.20;99.90;;;;;;5060414;28;20477;-73
2021/06/30 08:56:02;;;;;;;2.90;2.33;;;17.20;99.90;;;;;;5059712;28;20446;-74
2021/06/30 08:58:38;;;;;;;2.40;1.63;;;17.20;99.90;;;;;;5089729;27;20281;-74
2021/06/30 09:01:15;;;;;;;3.13;1.85;;;17.20;99.90;;;;;;5052469;28;20209;-74
2021/06/30 09:03:55;;;;;;;2.60;1.77;;;17.30;99.90;;;;;;5055928;28;20492;-74
2021/06/30 09:06:33;;;;;;;1.90;1.63;;;17.30;99.90;;;;;;5096344;27;20452;-77
2021/06/30 09:09:13;;;;;;;3.05;1.50;;;17.30;99.90;;;;;;5056056;28;20472;-74
2021/06/30 09:11:58;;;;;;;2.22;1.52;;;17.20;99.90;;;;;;5056376;28;20484;-74
2021/06/30 09:14:37;;;;;;;2.55;1.42;;;17.20;99.90;;;;;;5096110;27;20389;-76
2021/06/30 09:17:22;;;;;;;1.70;1.10;;;17.30;99.90;;;;;;5036209;28;20506;-75
2021/06/30 09:20:08;;;;;;;2.85;1.20;;;17.40;99.90;;;;;;5046403;28;20435;-77
2021/06/30 09:22:54;;;;;;;1.50;1.10;;;17.40;99.90;;;;;;5059891;27;20454;-76
2021/06/30 09:25:34;;;;;;;2.22;1.40;;;17.50;99.90;;;;;;5052961;28;20442;-77
2021/06/30 09:28:16;;;;;;;2.13;1.50;;;17.50;99.90;;;;;;5099091;27;20469;-74
2021/06/30 09:30:59;;;;;;;2.10;1.48;;;17.60;99.90;;;;;;5048002;28;20511;-75
2021/06/30 09:33:52;;;;;;;2.22;1.40;;;17.60;99.90;;;;;;5098282;27;1285803;-73
2021/06/30 09:36:43;;;;;;;2.60;1.80;;;17.60;99.90;;;;;;5078642;27;1270304;-74
2021/06/30 09:39:21;;;;;;;2.30;1.23;;;17.60;99.90;;;;;;5060697;28;20901;-75
2021/06/30 09:42:13;;;;;;;2.05;1.63;;;17.60;99.90;;;;;;5103801;27;20512;-74
2021/06/30 09:45:10;;;;;;;1.92;1.20;;;17.60;99.90;;;;;;5104253;27;20473;-74
2021/06/30 09:47:51;;;;;;;1.90;1.40;;;17.60;99.90;;;;;;5113722;27;20694;-73
2021/06/30 09:50:38;;;;;;;2.00;1.27;;;17.60;99.90;;;;;;5068529;28;20482;-76
2021/06/30 09:53:37;;;;;;;2.05;1.67;;;17.60;99.90;;;;;;5115291;27;1323911;-75
2021/06/30 09:56:15;;;;;;;2.60;1.55;;;17.50;99.90;;;;;;5112068;27;20418;-75
2021/06/30 09:58:51;;;;;;;1.95;1.20;;;17.30;99.90;;;;;;5087755;27;20214;-73
2021/06/30 10:01:28;;;;;;;1.17;0.93;;;17.30;99.90;;;;;;5107846;27;20160;-73
2021/06/30 10:04:05;;;;;;;2.58;1.33;;;17.30;99.90;;;;;;5101105;27;20140;-75
2021/06/30 10:06:41;;;;;;;1.83;1.30;;;17.40;99.90;;;;;;5089157;27;1279152;-75
2021/06/30 10:09:18;;;;;;;1.90;1.30;;;17.40;99.90;;;;;;5105829;27;20519;-73
2021/06/30 10:12:00;;;;;;;2.00;1.55;;;17.40;99.90;;;;;;5072091;28;20655;-75
2021/06/30 10:14:40;;;;;;;1.60;1.50;;;17.40;99.90;;;;;;5062430;28;20436;-75
2021/06/30 10:17:17;;;;;;;2.40;1.85;;;17.40;99.90;;;;;;5087128;27;20573;-74
2021/06/30 10:19:57;;;;;;;1.98;1.58;;;17.50;99.90;;;;;;5065264;28;20934;-74
2021/06/30 10:22:34;;;;;;;2.60;1.63;;;17.50;99.90;;;;;;5119787;27;1272870;-74
2021/06/30 10:25:09;;;;;;;2.85;2.20;;;17.70;99.90;;;;;;5079249;27;1278491;-76
2021/06/30 10:27:47;;;;;;;3.40;1.80;;;17.70;99.90;;;;;;5060183;28;20487;-75
2021/06/30 10:30:23;;;;;;;2.20;1.83;;;17.80;99.90;;;;;;5115389;27;1277484;-75
2021/06/30 10:33:01;;;;;;;1.95;1.75;;;17.90;99.90;;;;;;5107234;27;1584934;-75
2021/06/30 10:35:48;;;;;;;1.90;1.45;;;18.00;99.90;;;;;;5118523;27;20434;-78
2021/06/30 10:38:54;;;;;;;1.60;1.10;;;18.00;99.90;;;;;;5067606;28;20550;-76
2021/06/30 10:41:52;;;;;;;2.22;1.40;;;18.10;99.90;;;;;;5084474;27;1280567;-78
2021/06/30 10:44:48;;;;;;;2.63;1.40;;;18.30;99.90;;;;;;5051456;28;20400;-76
2021/06/30 10:47:51;;;;;;;2.08;1.13;;;18.60;99.90;;;;;;5072126;27;20428;-75
2021/06/30 10:50:34;;;;;;;1.35;1.13;;;18.90;99.90;;;;;;5094414;27;20947;-76
2021/06/30 10:53:11;;;;;;;1.67;1.15;;;18.70;99.90;;;;;;5101141;27;1664879;-76
2021/06/30 10:55:51;;;;;;;1.13;1.00;;;18.60;99.90;;;;;;5084567;27;1341456;-75
2021/06/30 10:58:30;;;;;;;1.20;0.88;;;18.50;99.90;;;;;;5048483;28;20942;-75
2021/06/30 11:01:11;;;;;;;1.25;0.80;;;18.30;99.90;;;;;;5070507;28;20938;-74
2021/06/30 11:03:50;;;;;;;1.45;1.13;;;18.20;99.90;;;;;;5102379;27;20871;-74
2021/06/30 11:06:30;;;;;;;1.80;1.10;;;18.20;99.90;;;;;;5066182;27;20519;-74
2021/06/30 11:09:09;;;;;;;1.83;1.58;;;18.20;99.90;;;;;;5066068;28;20917;-73
2021/06/30 11:11:45;;;;;;;2.08;1.10;;;18.20;99.90;;;;;;5069375;27;1577454;-73
2021/06/30 11:14:36;;;;;;;2.38;1.63;;;18.20;99.90;;;;;;5088693;27;1272360;-76
2021/06/30 11:17:32;;;;;;;2.45;1.45;;;18.30;99.90;;;;;;5080490;28;20461;-76
2021/06/30 11:20:11;;;;;;;3.38;1.25;;;18.40;99.90;;;;;;5140018;27;20307;-76
2021/06/30 11:22:49;;;;;;;2.53;1.25;;;18.60;99.90;;;;;;5070532;27;1288343;-77
2021/06/30 11:25:27;;;;;;;1.63;1.10;;;18.60;99.90;;;;;;5104305;27;20420;-74
2021/06/30 11:28:02;;;;;;;1.80;1.23;;;18.70;99.90;;;;;;5100659;27;1330056;-74
2021/06/30 11:30:40;;;;;;;2.40;1.30;;;18.70;99.90;;;;;;5064828;27;20943;-75
2021/06/30 11:33:16;;;;;;;2.50;1.42;;;18.60;99.90;;;;;;5084619;28;20215;-74
2021/06/30 11:36:02;;;;;;;2.40;2.15;;;18.50;99.90;;;;;;5097149;27;20770;-74
2021/06/30 11:38:39;;;;;;;3.78;2.25;;;18.30;99.90;;;;;;5083182;28;20846;-73
2021/06/30 11:41:22;;;;;;;2.80;2.50;;;18.10;99.90;;;;;;5071783;27;1347358;-74
2021/06/30 11:43:59;;;;;;;2.10;1.95;;;17.90;99.90;;;;;;5076233;27;20950;-73
2021/06/30 11:46:36;;;;;;;3.03;2.40;;;17.80;99.90;;;;;;5060277;28;20602;-74
2021/06/30 11:49:17;;;;;;;3.17;2.58;;;17.80;99.90;;;;;;5114838;27;1282564;-73
2021/06/30 11:51:59;;;;;;;3.58;2.63;;;17.70;99.90;;;;;;5056190;28;20955;-73
2021/06/30 11:54:37;;;;;;;3.90;2.92;;;17.70;99.90;;;;;;5107765;27;20543;-74
2021/06/30 11:57:14;;;;;;;4.38;3.58;;;17.70;99.90;;;;;;5069376;28;20406;-74
2021/06/30 12:00:05;;;;;;;4.10;3.60;;;17.80;99.90;;;;;;5092628;27;20220;-74
2021/06/30 12:02:52;;;;;;;3.83;3.08;;;17.80;99.90;;;;;;5132706;27;20309;-73
2021/06/30 12:05:29;;;;;;;3.38;3.08;;;17.90;99.90;;;;;;5101489;27;1272942;-74
2021/06/30 12:08:08;;;;;;;3.75;3.33;;;18.00;99.90;;;;;;5106202;27;22511;-74
2021/06/30 12:10:47;;;;;;;3.55;3.10;;;18.00;99.90;;;;;;5069488;28;20395;-73
2021/06/30 12:13:25;;;;;;;4.22;3.05;;;17.90;99.90;;;;;;5067073;28;21666;-74
2021/06/30 12:16:03;;;;;;;4.18;3.78;;;17.80;99.90;;;;;;5056092;28;20800;-75
2021/06/30 12:18:41;;;;;;;4.75;3.50;;;17.70;99.90;;;;;;5058284;28;20453;-75
2021/06/30 12:21:19;;;;;;;3.67;2.90;;;17.60;99.90;;;;;;5108412;27;20538;-73
2021/06/30 12:23:56;;;;;;;4.18;2.88;;;17.50;99.90;;;;;;5060424;28;20146;-73
2021/06/30 12:26:32;;;;;;;5.18;4.00;;;17.50;99.90;;;;;;5061141;28;20237;-73
2021/06/30 12:29:16;;;;;;;3.28;2.97;;;17.50;99.90;;;;;;5068783;28;20211;-74
2021/06/30 12:31:55;;;;;;;4.68;3.53;;;17.50;99.90;;;;;;5110925;27;20900;-75
2021/06/30 12:34:31;;;;;;;4.35;3.95;;;17.50;99.90;;;;;;5116103;27;1314072;-76
2021/06/30 12:37:18;;;;;;;3.78;3.47;;;17.50;99.90;;;;;;5107321;27;20468;-74
2021/06/30 12:40:08;;;;;;;4.90;3.67;;;17.60;99.90;;;;;;5070289;28;21368;-75
2021/06/30 12:42:46;;;;;;;5.40;4.82;;;17.60;99.90;;;;;;5069538;28;20424;-74
2021/06/30 12:45:42;;;;;;;6.00;3.95;;;17.50;99.90;;;;;;5105239;27;1282634;-74
2021/06/30 12:48:23;;;;;;;6.45;4.30;;;17.50;99.90;;;;;;5105701;27;1267639;-73
2021/06/30 12:51:10;;;;;;;4.72;3.75;;;17.40;99.90;;;;;;5051272;28;20412;-76
2021/06/30 12:53:47;;;;;;;3.63;3.33;;;17.30;99.90;;;;;;5068583;28;20433;-74
2021/06/30 12:56:34;;;;;;;5.20;3.90;;;17.20;99.90;;;;;;5090990;27;20196;-75
2021/06/30 12:59:14;;;;;;;5.25;4.38;;;17.20;99.90;;;;;;5114001;27;20419;-76
2021/06/30 13:01:52;;;;;;;4.50;4.10;;;17.10;99.90;;;;;;5102995;27;20536;-73
2021/06/30 13:04:31;;;;;;;5.22;4.70;;;17.10;99.90;;;;;;5061287;28;20750;-73
2021/06/30 13:07:09;;;;;;;4.63;4.22;;;17.10;99.90;;;;;;5040217;28;20462;-74
2021/06/30 13:09:48;;;;;;;4.95;4.53;;;17.10;99.90;;;;;;5070975;28;20491;-75
2021/06/30 13:12:28;;;;;;;5.25;4.72;;;17.10;99.90;;;;;;5089309;27;1261918;-75
2021/06/30 13:15:19;;;;;;;5.43;4.97;;;17.10;99.90;;;;;;5148278;27;20111;-74
2021/06/30 13:18:17;;;;;;;8.45;5.50;;;17.20;99.90;;;;;;5091772;27;20779;-76
2021/06/30 13:21:05;;;;;;;7.20;5.43;;;17.40;99.90;;;;;;5085427;27;20207;-74
2021/06/30 13:35:33;;;;;;;8.43;5.93;;;18.10;99.90;;;;;;5093096;27;20420;-74
2021/06/30 13:38:19;;;;;;;9.07;6.40;;;18.20;99.90;;;;;;5047978;28;20585;-73
2021/06/30 13:40:59;;;;;;;8.38;6.00;;;18.00;99.90;;;;;;5071889;28;20951;-75
2021/06/30 13:43:36;;;;;;;7.18;6.22;;;18.00;99.90;;;;;;5099110;27;20435;-74
2021/06/30 13:46:22;;;;;;;7.53;6.72;;;17.90;99.90;;;;;;5074972;27;1269689;-74
2021/06/30 13:48:58;;;;;;;9.45;6.38;;;17.90;99.90;;;;;;5055530;27;1939455;-74
2021/06/30 13:51:35;;;;;;;8.43;6.25;;;17.80;99.90;;;;;;5113621;27;20444;-76
2021/06/30 13:54:12;;;;;;;8.43;6.93;;;17.70;99.90;;;;;;5070789;28;20188;-75
2021/06/30 13:56:49;;;;;;;7.78;6.82;;;17.60;99.90;;;;;;5111415;27;1294985;-74
2021/06/30 13:59:27;;;;;;;8.38;6.47;;;17.50;99.90;;;;;;5134325;27;20993;-76